createdAt,value
2019-01-16T00:01:33.287Z,100601.55
2019-01-16T00:04:19.626Z,100600.70
2019-01-16T00:07:09.691Z,100600.20
2019-01-16T00:09:59.219Z,100602.98
2019-01-16T00:12:50.606Z,100603.45
2019-01-16T00:15:36.222Z,100605.75
2019-01-16T00:18:23.420Z,100597.25
2019-01-16T00:20:59.431Z,100593.67
2019-01-16T00:23:49.015Z,100591.91
2019-01-16T00:26:44.930Z,100600.88
2019-01-16T00:29:22.383Z,100600.48
2019-01-16T00:32:05.267Z,100593.33
2019-01-16T00:34:45.547Z,100590.22
2019-01-16T00:37:30.539Z,100586.59
2019-01-16T00:40:25.982Z,100581.66
2019-01-16T00:43:24.879Z,100586.17
2019-01-16T00:46:21.017Z,100591.98
2019-01-16T00:49:02.378Z,100584.83
2019-01-16T00:51:53.307Z,100581.66
2019-01-16T00:54:42.967Z,100582.13
2019-01-16T00:57:32.617Z,100587.47
2019-01-16T01:00:19.555Z,100584.83
2019-01-16T01:03:00.139Z,100582.13
2019-01-16T01:05:37.216Z,100588.87
2019-01-16T01:08:33.586Z,100577.70
2019-01-16T01:11:19.200Z,100587.52
2019-01-16T01:14:00.003Z,100600.20
2019-01-16T01:16:45.799Z,100586.72
2019-01-16T01:19:28.501Z,100588.06
2019-01-16T01:22:07.083Z,100580.06
2019-01-16T01:24:54.526Z,100592.58
2019-01-16T01:27:46.130Z,100588.61
2019-01-16T01:30:33.591Z,100580.52
2019-01-16T01:33:10.367Z,100588.61
2019-01-16T01:36:00.172Z,100592.66
2019-01-16T01:38:40.274Z,100587.73
2019-01-16T01:41:19.245Z,100587.31
2019-01-16T01:44:12.208Z,100590.89
2019-01-16T01:46:57.643Z,100592.70
2019-01-16T01:49:42.422Z,100592.31
2019-01-16T01:52:28.573Z,100593.17
2019-01-16T01:55:15.766Z,100599.91
2019-01-16T01:58:15.043Z,100587.77
2019-01-16T02:00:57.740Z,100592.78
2019-01-16T02:03:43.847Z,100591.44
2019-01-16T02:06:29.610Z,100590.09
2019-01-16T02:09:14.193Z,100586.97
2019-01-16T02:12:01.347Z,100584.74
2019-01-16T02:14:47.094Z,100590.13
2019-01-16T02:17:30.571Z,100579.84
2019-01-16T02:20:25.774Z,100581.58
2019-01-16T02:23:10.323Z,100582.55
2019-01-16T02:25:56.185Z,100586.59
2019-01-16T02:28:32.231Z,100581.20
2019-01-16T02:31:24.020Z,100579.43
2019-01-16T02:34:09.540Z,100567.72
2019-01-16T02:36:47.684Z,100579.84
2019-01-16T02:39:23.094Z,100566.41
2019-01-16T02:42:09.236Z,100565.95
2019-01-16T02:44:55.674Z,100569.99
2019-01-16T02:47:38.797Z,100560.60
2019-01-16T02:50:18.163Z,100567.34
2019-01-16T02:53:02.207Z,100563.80
2019-01-16T02:55:47.371Z,100557.98
2019-01-16T02:58:34.206Z,100546.73
2019-01-16T03:01:20.530Z,100555.30
2019-01-16T03:04:19.454Z,100549.44
2019-01-16T03:06:58.691Z,100543.16
2019-01-16T03:09:51.639Z,100545.77
2019-01-16T03:12:44.088Z,100542.70
2019-01-16T03:15:37.099Z,100539.12
2019-01-16T03:18:22.900Z,100540.47
2019-01-16T03:21:09.096Z,100534.61
2019-01-16T03:24:02.559Z,100525.64
2019-01-16T03:26:36.547Z,100528.75
2019-01-16T03:29:16.285Z,100525.17
2019-01-16T03:32:03.351Z,100515.27
2019-01-16T03:34:45.933Z,100521.52
2019-01-16T03:37:36.343Z,100515.66
2019-01-16T03:40:17.078Z,100511.61
2019-01-16T03:43:03.933Z,100501.66
2019-01-16T03:45:47.058Z,100500.31
2019-01-16T03:48:40.184Z,100508.87
2019-01-16T03:51:25.283Z,100501.16
2019-01-16T03:54:10.447Z,100495.77
2019-01-16T03:57:03.631Z,100494.92
2019-01-16T03:59:54.704Z,100498.00
2019-01-16T04:02:44.610Z,100488.64
2019-01-16T04:05:35.863Z,100483.72
2019-01-16T04:08:23.046Z,100486.41
2019-01-16T04:11:16.044Z,100486.41
2019-01-16T04:14:01.591Z,100478.38
2019-01-16T04:16:46.769Z,100478.38
2019-01-16T04:19:33.595Z,100479.26
2019-01-16T04:22:14.273Z,100479.34
2019-01-16T04:24:54.455Z,100477.99
2019-01-16T04:27:46.859Z,100468.14
2019-01-16T04:30:43.285Z,100469.44
2019-01-16T04:33:29.847Z,100469.95
2019-01-16T04:36:27.899Z,100456.48
2019-01-16T04:39:15.427Z,100462.37
2019-01-16T04:42:08.302Z,100459.67
2019-01-16T04:44:54.105Z,100455.62
2019-01-16T04:47:38.199Z,100464.56
2019-01-16T04:50:22.715Z,100462.83
2019-01-16T04:53:18.981Z,100453.87
2019-01-16T04:56:11.666Z,100451.17
2019-01-16T04:58:58.125Z,100459.25
2019-01-16T05:01:49.114Z,100450.70
2019-01-16T05:04:33.934Z,100449.36
2019-01-16T05:07:24.451Z,100445.70
2019-01-16T05:10:03.435Z,100442.61
2019-01-16T05:12:49.557Z,100433.18
2019-01-16T05:15:36.991Z,100432.30
2019-01-16T05:18:13.723Z,100441.73
2019-01-16T05:20:59.367Z,100436.26
2019-01-16T05:23:45.239Z,100439.79
2019-01-16T05:26:32.410Z,100437.94
2019-01-16T05:29:19.571Z,100438.13
2019-01-16T05:32:12.808Z,100437.29
2019-01-16T05:34:58.958Z,100432.83
2019-01-16T05:37:44.966Z,100427.11
2019-01-16T05:40:30.875Z,100430.22
2019-01-16T05:43:08.131Z,100422.18
2019-01-16T05:45:47.508Z,100420.83
2019-01-16T05:48:29.819Z,100419.48
2019-01-16T05:51:18.442Z,100426.22
2019-01-16T05:54:04.347Z,100418.08
2019-01-16T05:56:50.477Z,100413.89
2019-01-16T05:59:38.161Z,100412.81
2019-01-16T06:02:23.982Z,100408.52
2019-01-16T06:05:10.898Z,100408.66
2019-01-16T06:07:48.795Z,100406.89
2019-01-16T06:10:46.466Z,100404.33
2019-01-16T06:13:32.822Z,100402.10
2019-01-16T06:16:12.092Z,100403.06
2019-01-16T06:19:02.662Z,100405.77
2019-01-16T06:21:47.206Z,100398.61
2019-01-16T06:24:43.291Z,100405.42
2019-01-16T06:27:21.952Z,100400.30
2019-01-16T06:30:03.519Z,100389.72
2019-01-16T06:32:56.539Z,100386.09
2019-01-16T06:35:52.474Z,100385.00
2019-01-16T06:38:42.653Z,100392.53
2019-01-16T06:41:28.518Z,100388.91
2019-01-16T06:44:20.998Z,100392.06
2019-01-16T06:47:14.488Z,100379.92
2019-01-16T06:49:48.463Z,100383.54
2019-01-16T06:52:29.570Z,100384.14
2019-01-16T06:58:47.487Z,100386.03
2019-01-16T07:01:37.391Z,100389.81
2019-01-16T07:04:23.170Z,100385.44
2019-01-16T07:07:09.962Z,100389.99
2019-01-16T07:09:57.671Z,100387.92
2019-01-16T07:12:43.332Z,100396.11
2019-01-16T07:15:42.742Z,100400.38
2019-01-16T07:18:29.874Z,100387.34
2019-01-16T07:21:15.638Z,100389.33
2019-01-16T07:23:55.295Z,100389.11
2019-01-16T07:26:41.386Z,100389.52
2019-01-16T07:29:34.543Z,100386.88
2019-01-16T07:32:21.649Z,100381.62
2019-01-16T07:35:07.931Z,100392.02
2019-01-16T07:37:53.907Z,100385.33
2019-01-16T07:40:31.626Z,100384.87
2019-01-16T07:43:18.244Z,100386.68
2019-01-16T07:45:54.920Z,100381.30
2019-01-16T07:48:36.144Z,100391.19
2019-01-16T07:51:15.193Z,100379.06
2019-01-16T07:54:01.169Z,100387.61
2019-01-16T07:56:48.571Z,100388.03
2019-01-16T07:59:33.171Z,100379.53
2019-01-16T08:02:10.928Z,100376.36
2019-01-16T08:05:00.686Z,100377.80
2019-01-16T08:07:47.615Z,100376.03
2019-01-16T08:10:33.697Z,100380.49
2019-01-16T08:13:19.465Z,100367.95
2019-01-16T08:16:10.976Z,100373.80
2019-01-16T08:18:48.207Z,100374.30
2019-01-16T08:21:33.875Z,100369.30
2019-01-16T08:24:23.920Z,100368.03
2019-01-16T08:27:09.195Z,100357.72
2019-01-16T08:29:53.110Z,100356.79
2019-01-16T08:32:30.343Z,100352.25
2019-01-16T08:35:18.351Z,100354.56
2019-01-16T08:37:58.255Z,100360.83
2019-01-16T08:40:51.517Z,100355.91
2019-01-16T08:43:34.407Z,100357.64
2019-01-16T08:46:20.066Z,100350.52
2019-01-16T08:49:06.427Z,100352.44
2019-01-16T08:51:52.375Z,100359.31
2019-01-16T08:54:31.759Z,100357.17
2019-01-16T08:57:23.747Z,100351.73
2019-01-16T09:00:05.206Z,100349.03
2019-01-16T09:02:54.915Z,100346.34
2019-01-16T09:05:40.527Z,100344.49
2019-01-16T09:08:25.351Z,100349.88
2019-01-16T09:11:30.179Z,100349.41
2019-01-16T09:14:10.475Z,100310.31
2019-01-16T09:17:13.247Z,100331.98
2019-01-16T09:19:47.062Z,100326.98
2019-01-16T09:22:32.680Z,100333.33
2019-01-16T09:25:25.831Z,100325.25
2019-01-16T09:28:13.264Z,100325.25
2019-01-16T09:31:09.447Z,100323.90
2019-01-16T09:33:53.383Z,100318.52
2019-01-16T09:36:47.695Z,100316.75
2019-01-16T09:39:26.692Z,100312.70
2019-01-16T09:42:19.736Z,100311.36
2019-01-16T09:45:21.699Z,100304.23
2019-01-16T09:48:11.662Z,100306.94
2019-01-16T09:51:08.874Z,100306.05
2019-01-16T09:53:54.373Z,100310.56
2019-01-16T09:56:40.479Z,100316.36
2019-01-16T09:59:26.687Z,100303.83
2019-01-16T10:02:13.527Z,100310.67
2019-01-16T10:04:56.802Z,100299.09
2019-01-16T10:07:34.968Z,100299.18
2019-01-16T10:10:37.078Z,100300.53
2019-01-16T10:13:22.047Z,100259.81
2019-01-16T10:16:07.383Z,100285.62
2019-01-16T10:18:50.739Z,100292.30
2019-01-16T10:21:36.292Z,100294.03
2019-01-16T10:24:26.233Z,100293.48
2019-01-16T10:27:16.575Z,100291.20
2019-01-16T10:30:04.173Z,100290.73
2019-01-16T10:32:47.296Z,100286.60
2019-01-16T10:35:33.216Z,100278.52
2019-01-16T10:38:19.307Z,100270.42
2019-01-16T10:41:13.690Z,100279.86
2019-01-16T10:44:03.887Z,100273.63
2019-01-16T10:46:49.659Z,100263.31
2019-01-16T10:49:35.066Z,100259.27
2019-01-16T10:52:21.251Z,100254.34
2019-01-16T10:54:59.519Z,100252.58
2019-01-16T10:57:45.070Z,100250.86
2019-01-16T11:00:31.239Z,100253.55
2019-01-16T11:03:27.372Z,100246.40
2019-01-16T11:06:23.487Z,100240.13
2019-01-16T11:09:09.979Z,100239.66
2019-01-16T11:12:12.167Z,100237.05
2019-01-16T11:14:59.683Z,100230.37
2019-01-16T11:17:46.628Z,100235.30
2019-01-16T11:20:23.243Z,100230.84
2019-01-16T11:23:05.260Z,100229.11
2019-01-16T11:25:52.980Z,100225.91
2019-01-16T11:28:47.194Z,100221.88
2019-01-16T11:31:32.663Z,100216.48
2019-01-16T11:34:17.635Z,100219.68
2019-01-16T11:37:03.266Z,100211.59
2019-01-16T11:39:50.453Z,100210.25
2019-01-16T11:42:36.650Z,100202.63
2019-01-16T11:45:30.271Z,100202.22
2019-01-16T11:48:20.512Z,100205.88
2019-01-16T11:51:18.966Z,100193.25
2019-01-16T11:54:03.880Z,100189.21
2019-01-16T11:56:48.366Z,100186.52
2019-01-16T11:59:24.200Z,100178.94
2019-01-16T12:02:09.275Z,100150.56
2019-01-16T12:04:46.339Z,100175.27
2019-01-16T12:07:33.824Z,100158.64
2019-01-16T12:10:22.091Z,100163.09
2019-01-16T12:13:11.775Z,100155.00
2019-01-16T12:15:58.678Z,100151.80
2019-01-16T12:19:03.847Z,100145.02
2019-01-16T12:21:59.763Z,100146.36
2019-01-16T12:24:45.342Z,100144.55
2019-01-16T12:27:35.294Z,100135.12
2019-01-16T12:30:20.826Z,100140.97
2019-01-16T12:32:59.019Z,100137.34
2019-01-16T12:35:41.352Z,100128.37
2019-01-16T12:38:28.444Z,100131.54
2019-01-16T12:41:12.798Z,100126.15
2019-01-16T12:44:18.063Z,100110.92
2019-01-16T12:47:23.314Z,100114.44
2019-01-16T12:50:03.371Z,100106.90
2019-01-16T12:52:43.087Z,100102.86
2019-01-16T12:55:29.179Z,100105.17
2019-01-16T12:58:21.826Z,100100.63
2019-01-16T13:01:18.317Z,100106.43
2019-01-16T13:03:56.185Z,100096.53
2019-01-16T13:06:41.920Z,100112.46
2019-01-16T13:09:27.747Z,100097.64
2019-01-16T13:12:22.347Z,100094.41
2019-01-16T13:14:57.823Z,100097.48
2019-01-16T13:17:49.363Z,100100.12
2019-01-16T13:20:35.343Z,100093.30
2019-01-16T13:23:37.094Z,100095.93
2019-01-16T13:26:27.516Z,100089.09
2019-01-16T13:29:41.274Z,100097.09
2019-01-16T13:32:34.651Z,100087.19
2019-01-16T13:35:30.462Z,100083.97
2019-01-16T13:38:16.631Z,100089.73
2019-01-16T13:41:01.663Z,100080.23
2019-01-16T13:43:38.787Z,100077.92
2019-01-16T13:46:17.027Z,100076.09
2019-01-16T13:49:10.133Z,100073.81
2019-01-16T13:51:56.023Z,100073.72
2019-01-16T13:54:49.180Z,100073.25
2019-01-16T13:57:35.057Z,100082.69
2019-01-16T14:00:18.708Z,100074.19
2019-01-16T14:03:07.654Z,100075.48
2019-01-16T14:05:58.235Z,100081.66
2019-01-16T14:08:48.535Z,100075.39
2019-01-16T14:11:34.518Z,100074.54
2019-01-16T14:14:20.687Z,100079.11
2019-01-16T14:17:03.666Z,100065.73
2019-01-16T14:19:49.730Z,100059.45
2019-01-16T14:22:29.171Z,100050.95
2019-01-16T14:25:14.962Z,100049.23
2019-01-16T14:28:02.518Z,100055.26
2019-01-16T14:30:47.546Z,100047.58
2019-01-16T14:33:29.578Z,100052.00
2019-01-16T14:36:24.050Z,100044.69
2019-01-16T14:39:14.593Z,100047.23
2019-01-16T14:42:11.832Z,100041.31
2019-01-16T14:45:04.827Z,100038.98
2019-01-16T14:48:03.492Z,100041.52
2019-01-16T14:50:56.000Z,100023.12
2019-01-16T14:53:57.973Z,100034.78
2019-01-16T14:57:12.730Z,100028.52
2019-01-16T15:00:02.667Z,100020.42
2019-01-16T15:02:53.185Z,100025.81
2019-01-16T15:05:57.968Z,100027.73
2019-01-16T15:09:01.472Z,100024.72
2019-01-16T15:11:50.787Z,100017.52
2019-01-16T15:14:36.431Z,100001.80
2019-01-16T15:17:23.057Z,100016.47
2019-01-16T15:20:09.115Z,100015.53
2019-01-16T15:23:18.205Z,100006.57
2019-01-16T15:25:55.546Z,100007.03
2019-01-16T15:28:36.364Z,100008.80
2019-01-16T15:31:18.910Z,100007.03
2019-01-16T15:34:01.932Z,100001.73
2019-01-16T15:36:50.242Z,99999.98
2019-01-16T15:39:35.568Z,99992.37
2019-01-16T15:42:21.707Z,100004.50
2019-01-16T15:45:08.887Z,99988.32
2019-01-16T15:48:02.139Z,99991.11
2019-01-16T15:50:58.239Z,99989.77
2019-01-16T15:53:33.842Z,99985.72
2019-01-16T15:56:18.803Z,99991.17
2019-01-16T15:59:05.083Z,99983.97
2019-01-16T16:01:50.483Z,99978.57
2019-01-16T16:04:43.487Z,99982.62
2019-01-16T16:07:29.130Z,99980.33
2019-01-16T16:10:14.923Z,99978.48
2019-01-16T16:13:14.114Z,99979.35
2019-01-16T16:15:57.007Z,99963.02
2019-01-16T16:18:37.215Z,99970.33
2019-01-16T16:21:35.552Z,99963.18
2019-01-16T16:24:22.503Z,99963.99
2019-01-16T16:27:24.462Z,99968.88
2019-01-16T16:30:12.602Z,99959.38
2019-01-16T16:33:02.232Z,99967.06
2019-01-16T16:35:45.978Z,99953.02
2019-01-16T16:38:31.544Z,99917.30
2019-01-16T16:41:33.494Z,99939.37
2019-01-16T16:44:11.695Z,99939.48
2019-01-16T16:47:16.554Z,99925.59
2019-01-16T16:49:52.244Z,99921.55
2019-01-16T16:52:30.620Z,99922.89
2019-01-16T16:55:17.787Z,99931.86
2019-01-16T16:58:01.801Z,99929.16
2019-01-16T17:00:52.009Z,99934.66
2019-01-16T17:03:47.983Z,99925.75
2019-01-16T17:06:34.949Z,99918.23
2019-01-16T17:09:24.659Z,99917.19
2019-01-16T17:12:17.676Z,99915.84
2019-01-16T17:15:10.541Z,99909.73
2019-01-16T17:18:00.522Z,99906.27
2019-01-16T17:20:52.875Z,99898.27
2019-01-16T17:23:47.178Z,99891.12
2019-01-16T17:26:28.082Z,99889.05
2019-01-16T17:29:13.781Z,99885.56
2019-01-16T17:32:03.743Z,99882.60
2019-01-16T17:34:53.850Z,99878.02
2019-01-16T17:37:53.528Z,99871.19
2019-01-16T17:40:59.051Z,99872.53
2019-01-16T17:43:44.283Z,99866.20
2019-01-16T17:46:45.979Z,99862.22
2019-01-16T17:49:22.650Z,99860.87
2019-01-16T17:52:19.451Z,99855.48
2019-01-16T17:55:24.858Z,99853.25
2019-01-16T17:58:21.070Z,99847.39
2019-01-16T18:01:22.992Z,99831.14
2019-01-16T18:04:13.011Z,99827.47
2019-01-16T18:06:59.861Z,99827.41
2019-01-16T18:09:35.202Z,99823.26
2019-01-16T18:12:20.667Z,99828.11
2019-01-16T18:15:19.618Z,99832.63
2019-01-16T18:18:01.654Z,99831.82
2019-01-16T18:20:43.671Z,99827.88
2019-01-16T18:23:21.770Z,99815.74
2019-01-16T18:26:17.802Z,99821.61
2019-01-16T18:29:08.169Z,99817.19
2019-01-16T18:31:55.503Z,99814.56
2019-01-16T18:34:41.635Z,99819.89
2019-01-16T18:37:17.504Z,99823.52
2019-01-16T18:40:02.354Z,99819.08
2019-01-16T18:42:58.477Z,99818.20
2019-01-16T18:46:00.486Z,99808.29
2019-01-16T18:48:39.019Z,99793.09
2019-01-16T18:51:24.555Z,99785.00
2019-01-16T18:54:09.978Z,99783.08
2019-01-16T18:56:57.171Z,99775.47
2019-01-16T18:59:35.335Z,99784.42
2019-01-16T19:02:20.916Z,99780.38
2019-01-16T19:05:06.884Z,99770.47
2019-01-16T19:07:56.217Z,99773.64
2019-01-16T19:10:34.267Z,99767.38
2019-01-16T19:13:20.590Z,99759.12
2019-01-16T19:16:06.185Z,99768.95
2019-01-16T19:18:59.518Z,99764.61
2019-01-16T19:21:38.915Z,99750.16
2019-01-16T19:24:19.479Z,99757.59
2019-01-16T19:27:02.499Z,99762.83
2019-01-16T19:29:45.183Z,99750.11
2019-01-16T19:32:25.722Z,99758.91
2019-01-16T19:35:17.090Z,99756.58
2019-01-16T19:38:13.545Z,99750.34
2019-01-16T19:41:10.467Z,99747.65
2019-01-16T19:44:10.227Z,99753.89
2019-01-16T19:46:51.154Z,99739.93
2019-01-16T19:49:44.536Z,99742.48
2019-01-16T19:52:33.011Z,99738.38
2019-01-16T19:55:29.802Z,99737.49
2019-01-16T19:58:23.074Z,99743.29
2019-01-16T20:01:22.162Z,99734.70
2019-01-16T20:04:23.925Z,99718.21
2019-01-16T20:07:03.043Z,99722.40
2019-01-16T20:09:48.987Z,99714.97
2019-01-16T20:12:29.958Z,99715.45
2019-01-16T20:15:08.840Z,99699.33
2019-01-16T20:18:04.842Z,99699.73
2019-01-16T20:20:50.227Z,99673.71
2019-01-16T20:23:35.747Z,99686.29
2019-01-16T20:26:30.269Z,99693.87
2019-01-16T20:29:08.055Z,99682.61
2019-01-16T20:31:46.875Z,99683.55
2019-01-16T20:34:23.430Z,99676.34
2019-01-16T20:37:05.995Z,99664.67
2019-01-16T20:39:56.491Z,99669.19
2019-01-16T20:42:42.363Z,99663.47
2019-01-16T20:45:41.397Z,99656.90
2019-01-16T20:48:44.474Z,99654.83
2019-01-16T20:51:34.059Z,99651.73
2019-01-16T20:54:19.762Z,99642.99
2019-01-16T20:57:06.956Z,99643.39
2019-01-16T21:00:09.046Z,99638.11
2019-01-16T21:02:55.946Z,99636.07
2019-01-16T21:05:54.403Z,99640.99
2019-01-16T21:08:31.846Z,99636.47
2019-01-16T21:11:19.106Z,99631.08
2019-01-16T21:13:59.456Z,99622.52
2019-01-16T21:16:45.901Z,99622.98
2019-01-16T21:19:31.439Z,99622.00
2019-01-16T21:22:17.595Z,99613.58
2019-01-16T21:25:16.303Z,99605.27
2019-01-16T21:28:06.579Z,99595.53
2019-01-16T21:30:52.605Z,99589.37
2019-01-16T21:33:39.495Z,99588.02
2019-01-16T21:36:24.489Z,99593.01
2019-01-16T21:39:04.615Z,99585.43
2019-01-16T21:41:57.921Z,99580.58
2019-01-16T21:44:36.451Z,99572.13
2019-01-16T21:47:37.974Z,99570.78
2019-01-16T21:50:23.806Z,99566.73
2019-01-16T21:53:09.690Z,99562.69
2019-01-16T21:56:02.738Z,99558.14
2019-01-16T21:58:48.719Z,99553.25
2019-01-16T22:01:34.314Z,99552.85
2019-01-16T22:04:09.280Z,99546.52
2019-01-16T22:06:55.475Z,99539.77
2019-01-16T22:09:36.051Z,99547.75
2019-01-16T22:12:22.099Z,99539.77
2019-01-16T22:15:07.338Z,99530.33
2019-01-16T22:17:57.551Z,99517.22
2019-01-16T22:20:48.373Z,99528.41
2019-01-16T22:23:27.189Z,99520.79
2019-01-16T22:26:17.718Z,99523.30
2019-01-16T22:29:03.235Z,99526.77
2019-01-16T22:31:59.232Z,99519.26
2019-01-16T22:34:52.551Z,99515.39
2019-01-16T22:37:41.718Z,99507.41
2019-01-16T22:40:27.298Z,99502.09
2019-01-16T22:43:04.800Z,99507.13
2019-01-16T22:46:00.594Z,99502.20
2019-01-16T22:48:46.170Z,99490.95
2019-01-16T22:51:33.227Z,99495.06
2019-01-16T22:54:18.530Z,99486.10
2019-01-16T22:57:08.995Z,99498.63
2019-01-16T22:59:56.114Z,99483.88
2019-01-16T23:02:46.262Z,99489.27
2019-01-16T23:05:25.411Z,99482.64
2019-01-16T23:08:12.470Z,99487.16
2019-01-16T23:10:57.906Z,99482.75
2019-01-16T23:13:40.898Z,99482.75
2019-01-16T23:16:39.766Z,99486.80
2019-01-16T23:19:19.942Z,99482.34
2019-01-16T23:22:08.186Z,99477.43
2019-01-16T23:24:53.788Z,99475.21
2019-01-16T23:27:39.299Z,99472.52
2019-01-16T23:30:14.770Z,99469.45
2019-01-16T23:32:55.822Z,99454.63
2019-01-16T23:35:48.678Z,99461.44
2019-01-16T23:38:40.938Z,99461.44
2019-01-16T23:41:24.170Z,99460.56
2019-01-16T23:44:17.202Z,99464.61
2019-01-16T23:47:10.490Z,99448.91
2019-01-16T23:49:51.546Z,99442.28
2019-01-16T23:52:30.925Z,99442.57
2019-01-16T23:55:19.099Z,99430.44
2019-01-16T23:58:04.652Z,99438.05
